This is the latest recevied weather packets stored in our database for station/object KF7SOJ. If no packets are shown the sender has not sent any weather packets the latest 10 day(s).
| Time | Temp. | Humidity | Pressure | Rain* | Wind** | Luminosity | Snow |
|---|---|---|---|---|---|---|---|
| 1788273166 | 12.22° C | 65% | 930.9 hPa | 0 mm | - | 133 W/m² | - |
| 1788272862 | 12.78° C | 65% | 931 hPa | 0 mm | - | 119 W/m² | - |
| 1788272561 | 12.78° C | 66% | 930.8 hPa | 0 mm | - | 107 W/m² | - |
| 1788272256 | 12.78° C | 66% | 930.8 hPa | 0 mm | - | 98 W/m² | - |
| 1788271956 | 12.78° C | 63% | 930.5 hPa | 0 mm | - | 94 W/m² | - |
| 1788271656 | 12.22° C | 65% | 930.7 hPa | 0 mm | - | 91 W/m² | - |
| 1788271354 | 11.67° C | 67% | 930.6 hPa | 0 mm | - | 84 W/m² | - |
| 1788271050 | 11.11° C | 70% | 930.7 hPa | 0 mm | - | 76 W/m² | - |
| 1788270749 | 11.11° C | 71% | 930.9 hPa | 0 mm | - | 71 W/m² | - |
| 1788270446 | 10.56° C | 72% | 931 hPa | 0 mm | - | 72 W/m² | - |
| 1788270146 | 10.56° C | 73% | 930.9 hPa | 0 mm | - | 71 W/m² | - |
| 1788269845 | 10.56° C | 72% | 930.9 hPa | 0 mm | - | 69 W/m² | - |
| 1788269544 | 10.56° C | 71% | 931 hPa | 0 mm | - | 63 W/m² | - |
| 1788269243 | 11.11° C | 69% | 931 hPa | 0 mm | - | 57 W/m² | - |
| 1788268951 | 11.67° C | 64% | 931.1 hPa | 0 mm | - | 50 W/m² | - |
| 1788268633 | 12.22° C | 60% | 930.8 hPa | 0 mm | - | 41 W/m² | - |
| 1788268332 | 12.22° C | 60% | 930.9 hPa | 0 mm | - | 31 W/m² | - |
| 1788268028 | 11.67° C | 62% | 930.8 hPa | 0 mm | - | 23 W/m² | - |
| 1788267727 | 11.11° C | 65% | 930.6 hPa | 0 mm | - | 19 W/m² | - |
| 1788267425 | 11.11° C | 66% | 930.6 hPa | 0 mm | - | 14 W/m² | - |
| 1788267120 | 10.56° C | 66% | 930.7 hPa | 0 mm | - | 10 W/m² | - |
| 1788266815 | 10.56° C | 66% | 930.7 hPa | 0 mm | - | 6 W/m² | - |
| 1788266515 | 11.11° C | 64% | 930.6 hPa | 0 mm | - | 4 W/m² | - |
| 1788266210 | 11.11° C | 64% | 930.6 hPa | 0 mm | - | 3 W/m² | - |
| 1788265909 | 11.11° C | 63% | 930.5 hPa | 0 mm | - | 2 W/m² | - |
* Rain latest hour (hover to see other rain measurements)
** Current wind speed in m/s (hover to see current wind gust speed)